PWSweather.com
Personal Weather Stations
Station Observations
IRIVIRED2
île Maurice, Petit RaffrayMU

île MauricePetit RaffrayMU

Lat: -20.02533, Lon: 57.61883

Elevation: 183

Station Type: Davis Vantage Pro2 plus

http://www.meteomauritius.altervista.org

Latest ConditionsUpdated 8:20:00 PM GMT+04:04 Tuesday, Sep 18, 2018
Currently Today's Max Today's Min Today's Average
Temperature 72.8°F22.7°C 78.5°F25.8°C 69.0°F20.6°C 73.5°F23.1°C
Dew Point 67.3°F19.6°C 68.1°F20.1°C 64.3°F17.9°C 66.5°F19.2°C
Winds 3.5 mph ESE5.6 kmh ESE 12.7 mph -20.4 kmh - - 5.3 mph 8.5 kmh
Wind Gusts 9.2 mph14.8 kmh 23.0 mph37.0 kmh - -
Humidity 83% 85% 66% 79%
Pressure 30.25 in1024.4 mb 30.25 in1024.4 mb 30.14 in1020.7 mb -
Hour Temp Dew Point Humidity Winds Wind Gusts Pressure Precip Precip Rate Daily Precip Total
08:20 PM 72.8°F22.7°C 67.3°F19.6°C 83% 3.5 mph ESE5.6 kmh ESE 9.2 mph14.8 kmh 30.25 in1024.4 mb - 0.00 in0.0 mm 0.00 in0.0 mm
08:10 PM 73.0°F22.8°C 67.5°F19.7°C 83% 8.1 mph SE13.0 kmh SE 11.5 mph18.5 kmh 30.24 in1024.0 mb - 0.00 in0.0 mm 0.00 in0.0 mm
08:00 PM 73.0°F22.8°C 67.5°F19.7°C 83% 6.9 mph SE11.1 kmh SE 11.5 mph18.5 kmh 30.24 in1024.0 mb - 0.00 in0.0 mm 0.00 in0.0 mm
07:50 PM 73.0°F22.8°C 67.5°F19.7°C 83% 6.9 mph SE11.1 kmh SE 11.5 mph18.5 kmh 30.24 in1024.0 mb - 0.00 in0.0 mm 0.00 in0.0 mm
07:40 PM 73.1°F22.8°C 67.6°F19.8°C 83% 5.8 mph ESE9.3 kmh ESE 11.5 mph18.5 kmh 30.23 in1023.7 mb - 0.00 in0.0 mm 0.00 in0.0 mm
07:30 PM 73.2°F22.9°C 67.7°F19.8°C 83% 4.6 mph ESE7.4 kmh ESE 10.4 mph16.7 kmh 30.23 in1023.7 mb - 0.00 in0.0 mm 0.00 in0.0 mm
07:20 PM 73.4°F23.0°C 67.9°F19.9°C 83% 6.9 mph ESE11.1 kmh ESE 11.5 mph18.5 kmh 30.23 in1023.7 mb - 0.00 in0.0 mm 0.00 in0.0 mm
07:10 PM 73.4°F23.0°C 67.6°F19.8°C 82% 4.6 mph ESE7.4 kmh ESE 4.6 mph7.4 kmh 30.22 in1023.4 mb - 0.00 in0.0 mm 0.00 in0.0 mm
07:00 PM 73.5°F23.1°C 67.7°F19.8°C 82% 5.8 mph ESE9.3 kmh ESE 11.5 mph18.5 kmh 30.21 in1023.0 mb - 0.00 in0.0 mm 0.00 in0.0 mm
06:50 PM 73.7°F23.2°C 67.9°F19.9°C 82% 4.6 mph SE7.4 kmh SE 11.5 mph18.5 kmh 30.21 in1023.0 mb - 0.00 in0.0 mm 0.00 in0.0 mm
06:40 PM 73.8°F23.2°C 67.6°F19.8°C 81% 5.8 mph ESE9.3 kmh ESE 15.0 mph24.1 kmh 30.21 in1023.0 mb - 0.00 in0.0 mm 0.00 in0.0 mm
06:30 PM 73.8°F23.2°C 67.6°F19.8°C 81% 9.2 mph ESE14.8 kmh ESE 13.8 mph22.2 kmh 30.21 in1023.0 mb - 0.00 in0.0 mm 0.00 in0.0 mm
06:20 PM 73.9°F23.3°C 67.7°F19.8°C 81% 5.8 mph SE9.3 kmh SE 11.5 mph18.5 kmh 30.20 in1022.7 mb - 0.00 in0.0 mm 0.00 in0.0 mm
06:10 PM 74.0°F23.3°C 67.4°F19.7°C 80% 8.1 mph ESE13.0 kmh ESE 11.5 mph18.5 kmh 30.20 in1022.7 mb - 0.00 in0.0 mm 0.00 in0.0 mm
06:00 PM 74.3°F23.5°C 67.4°F19.7°C 79% 3.5 mph ESE5.6 kmh ESE 8.1 mph13.0 kmh 30.20 in1022.7 mb - 0.00 in0.0 mm 0.00 in0.0 mm
05:50 PM 74.7°F23.7°C 67.4°F19.7°C 78% 6.9 mph ESE11.1 kmh ESE 10.4 mph16.7 kmh 30.20 in1022.7 mb - 0.00 in0.0 mm 0.00 in0.0 mm
05:40 PM 75.1°F23.9°C 67.4°F19.7°C 77% 6.9 mph SE11.1 kmh SE 11.5 mph18.5 kmh 30.19 in1022.4 mb - 0.00 in0.0 mm 0.00 in0.0 mm
05:30 PM 75.1°F23.9°C 67.4°F19.7°C 77% 4.6 mph SE7.4 kmh SE 9.2 mph14.8 kmh 30.19 in1022.4 mb - 0.00 in0.0 mm 0.00 in0.0 mm
05:20 PM 75.3°F24.1°C 67.2°F19.6°C 76% 8.1 mph ESE13.0 kmh ESE 13.8 mph22.2 kmh 30.19 in1022.4 mb - 0.00 in0.0 mm 0.00 in0.0 mm
05:10 PM 75.8°F24.3°C 67.3°F19.6°C 75% 9.2 mph SE14.8 kmh SE 16.1 mph25.9 kmh 30.19 in1022.4 mb - 0.00 in0.0 mm 0.00 in0.0 mm
05:00 PM 75.8°F24.3°C 67.3°F19.6°C 75% 5.8 mph SE9.3 kmh SE 11.5 mph18.5 kmh 30.19 in1022.4 mb - 0.00 in0.0 mm 0.00 in0.0 mm
04:50 PM 75.8°F24.3°C 67.3°F19.6°C 75% 5.8 mph SE9.3 kmh SE 11.5 mph18.5 kmh 30.18 in1022.0 mb - 0.00 in0.0 mm 0.00 in0.0 mm
04:00 PM 77.1°F25.1°C 67.4°F19.7°C 72% 8.1 mph E13.0 kmh E 19.6 mph31.5 kmh 30.16 in1021.3 mb - 0.00 in0.0 mm 0.00 in0.0 mm
03:50 PM 77.1°F25.1°C 67.8°F19.9°C 73% 3.5 mph ESE5.6 kmh ESE 11.5 mph18.5 kmh 30.16 in1021.3 mb - 0.00 in0.0 mm 0.00 in0.0 mm
03:40 PM 76.8°F24.9°C 67.5°F19.7°C 73% 8.1 mph ESE13.0 kmh ESE 13.8 mph22.2 kmh 30.16 in1021.3 mb - 0.00 in0.0 mm 0.00 in0.0 mm
03:30 PM 76.5°F24.7°C 66.8°F19.3°C 72% 8.1 mph SE13.0 kmh SE 16.1 mph25.9 kmh 30.16 in1021.3 mb - 0.00 in0.0 mm 0.00 in0.0 mm
03:20 PM 77.0°F25.0°C 67.3°F19.6°C 72% 6.9 mph SE11.1 kmh SE 11.5 mph18.5 kmh 30.16 in1021.3 mb - 0.00 in0.0 mm 0.00 in0.0 mm
03:10 PM 77.1°F25.1°C 67.0°F19.4°C 71% 8.1 mph E13.0 kmh E 8.1 mph13.0 kmh 30.16 in1021.3 mb - 0.00 in0.0 mm 0.00 in0.0 mm
03:00 PM 77.4°F25.2°C 66.8°F19.3°C 70% 6.9 mph ESE11.1 kmh ESE 11.5 mph18.5 kmh 30.16 in1021.3 mb - 0.00 in0.0 mm 0.00 in0.0 mm
02:50 PM 77.7°F25.4°C 66.7°F19.3°C 69% 12.7 mph E20.4 kmh E 19.6 mph31.5 kmh 30.16 in1021.3 mb - 0.00 in0.0 mm 0.00 in0.0 mm
02:40 PM 78.3°F25.7°C 66.9°F19.4°C 68% 9.2 mph ESE14.8 kmh ESE 15.0 mph24.1 kmh 30.16 in1021.3 mb - 0.00 in0.0 mm 0.00 in0.0 mm
02:30 PM 78.2°F25.7°C 67.2°F19.6°C 69% 9.2 mph SE14.8 kmh SE 17.3 mph27.8 kmh 30.16 in1021.3 mb - 0.00 in0.0 mm 0.00 in0.0 mm
02:20 PM 78.2°F25.7°C 66.8°F19.3°C 68% 10.4 mph E16.7 kmh E 18.4 mph29.6 kmh 30.16 in1021.3 mb - 0.00 in0.0 mm 0.00 in0.0 mm
02:10 PM 77.9°F25.5°C 66.1°F18.9°C 67% 10.4 mph E16.7 kmh E 23.0 mph37.0 kmh 30.16 in1021.3 mb - 0.00 in0.0 mm 0.00 in0.0 mm
02:00 PM 78.4°F25.8°C 66.5°F19.2°C 67% 9.2 mph ESE14.8 kmh ESE 13.8 mph22.2 kmh 30.16 in1021.3 mb - 0.00 in0.0 mm 0.00 in0.0 mm
01:40 PM 78.4°F25.8°C 66.5°F19.2°C 67% 9.2 mph ESE14.8 kmh ESE 15.0 mph24.1 kmh 30.17 in1021.7 mb - 0.00 in0.0 mm 0.00 in0.0 mm
01:30 PM 78.4°F25.8°C 66.1°F18.9°C 66% 6.9 mph E11.1 kmh E 15.0 mph24.1 kmh 30.17 in1021.7 mb - 0.00 in0.0 mm 0.00 in0.0 mm
01:20 PM 78.3°F25.7°C 66.9°F19.4°C 68% 9.2 mph E14.8 kmh E 19.6 mph31.5 kmh 30.17 in1021.7 mb - 0.00 in0.0 mm 0.00 in0.0 mm
01:10 PM 78.5°F25.8°C 67.0°F19.4°C 68% 8.1 mph ESE13.0 kmh ESE 18.4 mph29.6 kmh 30.18 in1022.0 mb - 0.00 in0.0 mm 0.00 in0.0 mm
01:00 PM 78.3°F25.7°C 66.9°F19.4°C 68% 11.5 mph E18.5 kmh E 17.3 mph27.8 kmh 30.18 in1022.0 mb - 0.00 in0.0 mm 0.00 in0.0 mm
12:50 PM 78.1°F25.6°C 67.5°F19.7°C 70% 10.4 mph E16.7 kmh E 19.6 mph31.5 kmh 30.18 in1022.0 mb - 0.00 in0.0 mm 0.00 in0.0 mm
12:40 PM 78.0°F25.6°C 67.8°F19.9°C 71% 9.2 mph E14.8 kmh E 18.4 mph29.6 kmh 30.18 in1022.0 mb - 0.00 in0.0 mm 0.00 in0.0 mm
12:30 PM 77.6°F25.3°C 67.8°F19.9°C 72% 6.9 mph E11.1 kmh E 19.6 mph31.5 kmh 30.18 in1022.0 mb - 0.00 in0.0 mm 0.00 in0.0 mm
12:20 PM 78.0°F25.6°C 67.8°F19.9°C 71% 8.1 mph SE13.0 kmh SE 13.8 mph22.2 kmh 30.18 in1022.0 mb - 0.00 in0.0 mm 0.00 in0.0 mm
12:10 PM 78.0°F25.6°C 67.8°F19.9°C 71% 9.2 mph ESE14.8 kmh ESE 17.3 mph27.8 kmh 30.18 in1022.0 mb - 0.00 in0.0 mm 0.00 in0.0 mm
09:30 AM 77.4°F25.2°C 68.1°F20.1°C 73% 6.9 mph ESE11.1 kmh ESE 16.1 mph25.9 kmh 30.20 in1022.7 mb - 0.00 in0.0 mm 0.00 in0.0 mm
09:20 AM 76.4°F24.7°C 67.5°F19.7°C 74% 10.4 mph ESE16.7 kmh ESE 12.7 mph20.4 kmh 30.20 in1022.7 mb - 0.00 in0.0 mm 0.00 in0.0 mm
09:10 AM 76.8°F24.9°C 67.5°F19.7°C 73% 6.9 mph SE11.1 kmh SE 13.8 mph22.2 kmh 30.20 in1022.7 mb - 0.00 in0.0 mm 0.00 in0.0 mm
09:00 AM 76.1°F24.5°C 68.0°F20.0°C 76% 3.5 mph ENE5.6 kmh ENE 8.1 mph13.0 kmh 30.20 in1022.7 mb - 0.00 in0.0 mm 0.00 in0.0 mm
08:50 AM 75.0°F23.9°C 66.9°F19.4°C 76% 8.1 mph ESE13.0 kmh ESE 13.8 mph22.2 kmh 30.20 in1022.7 mb - 0.00 in0.0 mm 0.00 in0.0 mm
08:40 AM 74.8°F23.8°C 66.7°F19.3°C 76% 9.2 mph SE14.8 kmh SE 17.3 mph27.8 kmh 30.20 in1022.7 mb - 0.00 in0.0 mm 0.00 in0.0 mm
08:30 AM 74.9°F23.8°C 66.8°F19.3°C 76% 8.1 mph SE13.0 kmh SE 12.7 mph20.4 kmh 30.20 in1022.7 mb - 0.00 in0.0 mm 0.00 in0.0 mm
08:20 AM 74.7°F23.7°C 67.0°F19.4°C 77% 5.8 mph SE9.3 kmh SE 15.0 mph24.1 kmh 30.20 in1022.7 mb - 0.00 in0.0 mm 0.00 in0.0 mm
08:10 AM 75.0°F23.9°C 67.3°F19.6°C 77% 9.2 mph SE14.8 kmh SE 15.0 mph24.1 kmh 30.20 in1022.7 mb - 0.00 in0.0 mm 0.00 in0.0 mm
08:00 AM 74.6°F23.7°C 67.3°F19.6°C 78% 8.1 mph SE13.0 kmh SE 12.7 mph20.4 kmh 30.19 in1022.4 mb - 0.00 in0.0 mm 0.00 in0.0 mm
07:50 AM 73.8°F23.2°C 67.3°F19.6°C 80% 9.2 mph ESE14.8 kmh ESE 18.4 mph29.6 kmh 30.19 in1022.4 mb - 0.00 in0.0 mm 0.00 in0.0 mm
07:40 AM 72.9°F22.7°C 66.7°F19.3°C 81% 4.6 mph SE7.4 kmh SE 6.9 mph11.1 kmh 30.19 in1022.4 mb - 0.00 in0.0 mm 0.00 in0.0 mm
07:30 AM 72.4°F22.4°C 66.6°F19.2°C 82% 3.5 mph SSE5.6 kmh SSE 8.1 mph13.0 kmh 30.19 in1022.4 mb - 0.00 in0.0 mm 0.00 in0.0 mm
07:20 AM 71.9°F22.2°C 66.4°F19.1°C 83% 5.8 mph ESE9.3 kmh ESE 8.1 mph13.0 kmh 30.18 in1022.0 mb - 0.00 in0.0 mm 0.00 in0.0 mm
07:10 AM 71.2°F21.8°C 66.1°F18.9°C 84% 5.8 mph SE9.3 kmh SE 10.4 mph16.7 kmh 30.18 in1022.0 mb - 0.00 in0.0 mm 0.00 in0.0 mm
07:00 AM 70.5°F21.4°C 65.4°F18.6°C 84% 1.2 mph SSE1.9 kmh SSE 3.5 mph5.6 kmh 30.18 in1022.0 mb - 0.00 in0.0 mm 0.00 in0.0 mm
06:50 AM 69.9°F21.1°C 65.2°F18.4°C 85% 3.5 mph SE5.6 kmh SE 6.9 mph11.1 kmh 30.17 in1021.7 mb - 0.00 in0.0 mm 0.00 in0.0 mm
06:40 AM 69.5°F20.8°C 64.8°F18.2°C 85% 2.3 mph SSE3.7 kmh SSE 8.1 mph13.0 kmh 30.17 in1021.7 mb - 0.00 in0.0 mm 0.00 in0.0 mm
06:30 AM 69.2°F20.7°C 64.5°F18.1°C 85% 3.5 mph SE5.6 kmh SE 4.6 mph7.4 kmh 30.16 in1021.3 mb - 0.00 in0.0 mm 0.00 in0.0 mm
06:20 AM 69.0°F20.6°C 64.3°F17.9°C 85% 2.3 mph SE3.7 kmh SE 4.6 mph7.4 kmh 30.16 in1021.3 mb - 0.00 in0.0 mm 0.00 in0.0 mm
06:10 AM 69.0°F20.6°C 64.3°F17.9°C 85% 3.5 mph SE5.6 kmh SE 3.5 mph5.6 kmh 30.16 in1021.3 mb - 0.00 in0.0 mm 0.00 in0.0 mm
06:00 AM 69.2°F20.7°C 64.4°F18.0°C 85% 2.3 mph SE3.7 kmh SE 3.5 mph5.6 kmh 30.16 in1021.3 mb - 0.00 in0.0 mm 0.00 in0.0 mm
05:50 AM 69.2°F20.7°C 64.5°F18.1°C 85% Calm Calm -- 30.16 in1021.3 mb - 0.00 in0.0 mm 0.00 in0.0 mm
05:40 AM 69.3°F20.7°C 64.6°F18.1°C 85% 2.3 mph SE3.7 kmh SE 3.5 mph5.6 kmh 30.15 in1021.0 mb - 0.00 in0.0 mm 0.00 in0.0 mm
05:30 AM 69.5°F20.8°C 64.8°F18.2°C 85% 1.2 mph SE1.9 kmh SE 4.6 mph7.4 kmh 30.15 in1021.0 mb - 0.00 in0.0 mm 0.00 in0.0 mm
05:20 AM 69.6°F20.9°C 64.9°F18.3°C 85% 1.2 mph SE1.9 kmh SE 4.6 mph7.4 kmh 30.15 in1021.0 mb - 0.00 in0.0 mm 0.00 in0.0 mm
05:10 AM 69.6°F20.9°C 64.9°F18.3°C 85% 1.2 mph SSE1.9 kmh SSE 2.3 mph3.7 kmh 30.15 in1021.0 mb - 0.00 in0.0 mm 0.00 in0.0 mm
05:00 AM 69.6°F20.9°C 64.9°F18.3°C 85% 3.5 mph SE5.6 kmh SE 6.9 mph11.1 kmh 30.15 in1021.0 mb - 0.00 in0.0 mm 0.00 in0.0 mm
04:50 AM 69.6°F20.9°C 64.9°F18.3°C 85% 3.5 mph SE5.6 kmh SE 4.6 mph7.4 kmh 30.15 in1021.0 mb - 0.00 in0.0 mm 0.00 in0.0 mm
04:40 AM 69.6°F20.9°C 64.9°F18.3°C 85% 3.5 mph SE5.6 kmh SE 8.1 mph13.0 kmh 30.15 in1021.0 mb - 0.00 in0.0 mm 0.00 in0.0 mm
04:30 AM 69.7°F20.9°C 65.0°F18.3°C 85% 3.5 mph SE5.6 kmh SE 6.9 mph11.1 kmh 30.15 in1021.0 mb - 0.00 in0.0 mm 0.00 in0.0 mm
04:20 AM 69.8°F21.0°C 65.1°F18.4°C 85% Calm Calm 8.1 mph13.0 kmh 30.14 in1020.7 mb - 0.00 in0.0 mm 0.00 in0.0 mm
04:10 AM 70.0°F21.1°C 65.3°F18.5°C 85% Calm Calm 1.2 mph1.9 kmh 30.15 in1021.0 mb - 0.00 in0.0 mm 0.00 in0.0 mm
04:00 AM 70.2°F21.2°C 65.5°F18.6°C 85% 3.5 mph SSE5.6 kmh SSE 5.8 mph9.3 kmh 30.15 in1021.0 mb - 0.00 in0.0 mm 0.00 in0.0 mm
03:50 AM 70.4°F21.3°C 65.3°F18.5°C 84% 2.3 mph SE3.7 kmh SE 4.6 mph7.4 kmh 30.15 in1021.0 mb - 0.00 in0.0 mm 0.00 in0.0 mm
03:40 AM 70.5°F21.4°C 65.4°F18.6°C 84% 3.5 mph SE5.6 kmh SE 10.4 mph16.7 kmh 30.15 in1021.0 mb - 0.00 in0.0 mm 0.00 in0.0 mm
03:30 AM 70.5°F21.4°C 65.4°F18.6°C 84% 2.3 mph SE3.7 kmh SE 6.9 mph11.1 kmh 30.15 in1021.0 mb - 0.00 in0.0 mm 0.00 in0.0 mm
03:20 AM 70.6°F21.4°C 65.5°F18.6°C 84% 3.5 mph SE5.6 kmh SE 6.9 mph11.1 kmh 30.15 in1021.0 mb - 0.00 in0.0 mm 0.00 in0.0 mm
03:10 AM 70.7°F21.5°C 65.6°F18.7°C 84% 4.6 mph ESE7.4 kmh ESE 9.2 mph14.8 kmh 30.16 in1021.3 mb - 0.00 in0.0 mm 0.00 in0.0 mm
03:00 AM 70.7°F21.5°C 65.6°F18.7°C 84% 1.2 mph SE1.9 kmh SE 8.1 mph13.0 kmh 30.16 in1021.3 mb - 0.00 in0.0 mm 0.00 in0.0 mm
02:50 AM 70.8°F21.6°C 65.7°F18.7°C 84% 1.2 mph SE1.9 kmh SE 5.8 mph9.3 kmh 30.16 in1021.3 mb - 0.00 in0.0 mm 0.00 in0.0 mm
02:40 AM 70.9°F21.6°C 65.8°F18.8°C 84% 4.6 mph SE7.4 kmh SE 8.1 mph13.0 kmh 30.16 in1021.3 mb - 0.00 in0.0 mm 0.00 in0.0 mm
02:30 AM 70.9°F21.6°C 65.8°F18.8°C 84% 2.3 mph SE3.7 kmh SE 6.9 mph11.1 kmh 30.16 in1021.3 mb - 0.00 in0.0 mm 0.00 in0.0 mm
02:20 AM 70.9°F21.6°C 65.8°F18.8°C 84% 3.5 mph SE5.6 kmh SE 6.9 mph11.1 kmh 30.16 in1021.3 mb - 0.00 in0.0 mm 0.00 in0.0 mm
02:10 AM 70.9°F21.6°C 65.8°F18.8°C 84% 2.3 mph SSE3.7 kmh SSE 3.5 mph5.6 kmh 30.16 in1021.3 mb - 0.00 in0.0 mm 0.00 in0.0 mm
02:00 AM 71.0°F21.7°C 65.9°F18.8°C 84% 2.3 mph S3.7 kmh S 4.6 mph7.4 kmh 30.16 in1021.3 mb - 0.00 in0.0 mm 0.00 in0.0 mm
01:50 AM 71.1°F21.7°C 66.0°F18.9°C 84% 1.2 mph SE1.9 kmh SE 6.9 mph11.1 kmh 30.16 in1021.3 mb - 0.00 in0.0 mm 0.00 in0.0 mm
01:40 AM 71.1°F21.7°C 66.0°F18.9°C 84% 3.5 mph SE5.6 kmh SE 8.1 mph13.0 kmh 30.16 in1021.3 mb - 0.00 in0.0 mm 0.00 in0.0 mm
01:30 AM 71.2°F21.8°C 66.1°F18.9°C 84% 1.2 mph SE1.9 kmh SE 3.5 mph5.6 kmh 30.16 in1021.3 mb - 0.00 in0.0 mm 0.00 in0.0 mm
01:20 AM 71.3°F21.8°C 66.2°F19.0°C 84% 2.3 mph SE3.7 kmh SE 9.2 mph14.8 kmh 30.17 in1021.7 mb - 0.00 in0.0 mm 0.00 in0.0 mm
01:10 AM 71.4°F21.9°C 66.3°F19.1°C 84% 2.3 mph SSE3.7 kmh SSE 8.1 mph13.0 kmh 30.17 in1021.7 mb - 0.00 in0.0 mm 0.00 in0.0 mm
01:00 AM 71.5°F21.9°C 66.4°F19.1°C 84% 4.6 mph SE7.4 kmh SE 8.1 mph13.0 kmh 30.17 in1021.7 mb - 0.00 in0.0 mm 0.00 in0.0 mm
12:50 AM 71.7°F22.1°C 66.9°F19.4°C 85% 2.3 mph SE3.7 kmh SE 4.6 mph7.4 kmh 30.17 in1021.7 mb - 0.00 in0.0 mm 0.00 in0.0 mm
12:40 AM 71.9°F22.2°C 66.8°F19.3°C 84% 2.3 mph SE3.7 kmh SE 3.5 mph5.6 kmh 30.18 in1022.0 mb - 0.00 in0.0 mm 0.00 in0.0 mm
12:30 AM 72.1°F22.3°C 67.0°F19.4°C 84% 2.3 mph SE3.7 kmh SE 3.5 mph5.6 kmh 30.17 in1021.7 mb - 0.00 in0.0 mm 0.00 in0.0 mm
12:20 AM 72.2°F22.3°C 67.1°F19.5°C 84% 3.5 mph SE5.6 kmh SE 4.6 mph7.4 kmh 30.18 in1022.0 mb - 0.00 in0.0 mm 0.00 in0.0 mm
12:10 AM 72.2°F22.3°C 67.1°F19.5°C 84% 3.5 mph SE5.6 kmh SE 3.5 mph5.6 kmh 30.18 in1022.0 mb - 0.00 in0.0 mm 0.00 in0.0 mm
12:00 AM 72.3°F22.4°C 67.5°F19.7°C 85% 3.5 mph SE5.6 kmh SE 10.4 mph16.7 kmh 30.18 in1022.0 mb - 0.00 in0.0 mm 0.00 in0.0 mm